LOS ANGELES INTL

KLAX (LAX)
Los Angeles, California
Towered

Vatsim Metar:
KLAX 272153Z 26010KT 10SM FEW018 FEW150 SCT200 18/11 A3017 RMK AO2 SLP217 T01830111

No ATC Online

Traffic

Inbound:
Ident
Type
Name
ETA
Phase
CAP211
H/DC10/I
Mark J Angstadt KLZU
22:16 Z
Descent
AAR284
H/B744/L
1198798
22:30 Z
Cruse
AAL650
A319/L
charles V collin
22:47 Z
Climb
BAW281
H/B744
Daniel Grimes RPLL
22:56 Z
Cruse
UAL796
H/B789/L
Tristan Callon KIAH
23:15 Z
Cruse
QFA15
H/B789
Ashton Edwards
23:28 Z
Cruse
SWA875
B738/L
Graham Chaston EGKK
Boarding
DAL2742
A319/L
Steven CYYZ
Boarding
AAL212
A320/L
Nathan Stringer CYYZ
Boarding
BOX1225
H/B772/X
Mathieu Cantais LFPG
Unknown

Outbound:
Ident
Type
Name
Destination
Phase
KLM602
H/B744/L
Reynolds Kennedy KSEA
EHAM
Climb